createdAt,value
2023-08-21T00:03:49.058Z,65.32
2023-08-21T00:08:50.546Z,65.73
2023-08-21T00:13:52.307Z,65.32
2023-08-21T00:18:54.831Z,66.26
2023-08-21T00:23:56.426Z,65.98
2023-08-21T00:28:58.308Z,66.17
2023-08-21T00:33:59.699Z,66.58
2023-08-21T00:39:01.119Z,66.46
2023-08-21T00:44:02.548Z,65.99
2023-08-21T00:49:03.956Z,66.05
2023-08-21T00:54:05.397Z,66.80
2023-08-21T00:59:06.947Z,65.98
2023-08-21T01:04:09.524Z,66.31
2023-08-21T01:09:30.820Z,67.45
2023-08-21T01:14:37.335Z,66.60
2023-08-21T01:19:44.243Z,66.93
2023-08-21T01:24:45.790Z,66.51
2023-08-21T01:29:47.209Z,66.75
2023-08-21T01:34:51.417Z,67.42
2023-08-21T01:39:52.901Z,67.17
2023-08-21T01:44:54.960Z,67.05
2023-08-21T01:49:56.502Z,67.09
2023-08-21T01:54:57.928Z,67.38
2023-08-21T01:59:59.377Z,67.56
2023-08-21T02:05:00.860Z,66.98
2023-08-21T02:10:02.362Z,67.77
2023-08-21T02:15:04.056Z,66.95
2023-08-21T02:20:05.866Z,66.92
2023-08-21T02:25:07.629Z,67.18
2023-08-21T02:30:09.450Z,67.03
2023-08-21T02:35:11.686Z,67.43
2023-08-21T02:40:13.224Z,67.09
2023-08-21T02:45:14.621Z,67.29
2023-08-21T02:50:16.097Z,67.39
2023-08-21T02:55:17.542Z,67.24
2023-08-21T03:00:18.952Z,67.95
2023-08-21T03:05:20.377Z,67.44
2023-08-21T03:10:23.932Z,67.76
2023-08-21T03:15:25.533Z,68.02
2023-08-21T03:20:26.918Z,67.75
2023-08-21T03:25:29.099Z,67.54
2023-08-21T03:30:30.462Z,68.14
2023-08-21T03:35:31.831Z,67.57
2023-08-21T03:40:33.272Z,67.35
2023-08-21T03:45:34.783Z,68.70
2023-08-21T03:50:36.300Z,68.54
2023-08-21T03:55:37.792Z,68.42
2023-08-21T04:00:39.615Z,67.87
2023-08-21T04:05:41.028Z,67.66
2023-08-21T04:10:43.029Z,68.51
2023-08-21T04:15:47.530Z,68.52
2023-08-21T04:20:49.738Z,67.97
2023-08-21T04:25:51.092Z,67.78
2023-08-21T04:30:52.552Z,69.20
2023-08-21T04:35:54.005Z,69.57
2023-08-21T04:40:55.540Z,69.04
2023-08-21T04:45:56.936Z,69.76
2023-08-21T04:50:58.301Z,69.43
2023-08-21T04:56:01.203Z,70.23
2023-08-21T05:01:02.603Z,71.49
2023-08-21T05:06:04.169Z,69.08
2023-08-21T05:11:05.622Z,70.24
2023-08-21T05:16:07.280Z,68.83
2023-08-21T05:21:08.866Z,68.21
2023-08-21T05:26:10.303Z,68.09
2023-08-21T05:31:11.975Z,68.01
2023-08-21T05:36:13.654Z,67.90
2023-08-21T05:41:18.474Z,68.60
2023-08-21T05:46:20.040Z,68.88
2023-08-21T05:51:21.471Z,68.21
2023-08-21T05:56:23.656Z,68.84
2023-08-21T06:01:25.359Z,68.74
2023-08-21T06:06:27.191Z,68.95
2023-08-21T06:11:28.629Z,68.80
2023-08-21T06:16:30.098Z,69.34
2023-08-21T06:21:31.540Z,69.67
2023-08-21T06:26:32.937Z,69.30
2023-08-21T06:31:34.619Z,70.88
2023-08-21T06:36:35.976Z,69.24
2023-08-21T06:41:37.525Z,69.54
2023-08-21T06:46:39.487Z,68.72
2023-08-21T06:51:40.886Z,68.07
2023-08-21T06:56:42.785Z,67.39
2023-08-21T07:01:44.317Z,67.07
2023-08-21T07:06:45.727Z,66.30
2023-08-21T07:11:47.289Z,66.27
2023-08-21T07:16:48.826Z,66.02
2023-08-21T07:21:50.311Z,65.53
2023-08-21T07:26:51.714Z,64.68
2023-08-21T07:31:53.125Z,65.16
2023-08-21T07:36:55.559Z,65.02
2023-08-21T07:41:57.183Z,64.53
2023-08-21T07:46:58.641Z,64.02
2023-08-21T07:52:00.022Z,63.00
2023-08-21T07:57:01.618Z,62.53
2023-08-21T08:02:04.113Z,62.97
2023-08-21T08:07:05.464Z,61.84
2023-08-21T08:12:09.431Z,61.78
2023-08-21T08:17:11.079Z,62.60
2023-08-21T08:22:12.485Z,61.96
2023-08-21T08:27:14.123Z,61.46
2023-08-21T08:32:16.123Z,61.50
2023-08-21T08:37:18.081Z,61.95
2023-08-21T08:42:19.638Z,60.75
2023-08-21T08:47:21.558Z,60.77
2023-08-21T08:52:24.824Z,61.18
2023-08-21T08:57:26.213Z,60.43
2023-08-21T09:02:28.079Z,60.43
2023-08-21T09:07:29.516Z,60.35
2023-08-21T09:12:33.174Z,59.61
2023-08-21T09:17:34.865Z,57.70
2023-08-21T09:22:36.838Z,58.75
2023-08-21T09:27:39.966Z,57.61
2023-08-21T09:32:56.322Z,55.52
2023-08-21T09:37:57.795Z,56.13
2023-08-21T09:43:00.207Z,55.37
2023-08-21T09:48:02.812Z,55.06
2023-08-21T09:53:07.288Z,54.79
2023-08-21T09:58:09.648Z,53.35
2023-08-21T10:03:12.333Z,51.07
2023-08-21T10:08:17.533Z,51.38
2023-08-21T10:13:19.879Z,50.77
2023-08-21T10:18:24.863Z,49.50
2023-08-21T10:23:32.209Z,48.52
2023-08-21T10:29:00.548Z,47.10
2023-08-21T10:34:07.744Z,44.62
2023-08-21T10:39:20.455Z,42.25
2023-08-21T10:44:43.699Z,40.20
2023-08-21T10:49:49.760Z,40.39
2023-08-21T10:54:53.243Z,41.67
2023-08-21T11:00:18.330Z,42.21
2023-08-21T11:05:19.885Z,41.91
2023-08-21T11:10:25.386Z,40.53
2023-08-21T11:15:29.088Z,39.89
2023-08-21T11:20:33.098Z,38.32
2023-08-21T11:25:35.569Z,37.72
2023-08-21T11:30:37.638Z,36.74
2023-08-21T11:35:39.811Z,37.34
2023-08-21T11:40:41.474Z,36.24
2023-08-21T11:45:56.935Z,34.68
2023-08-21T11:51:00.519Z,34.79
2023-08-21T11:56:02.645Z,34.51
2023-08-21T12:01:05.500Z,34.18
2023-08-21T12:06:11.571Z,33.18
2023-08-21T12:11:13.149Z,32.58
2023-08-21T12:16:14.582Z,32.27
2023-08-21T12:21:16.255Z,33.20
2023-08-21T12:26:21.981Z,34.71
2023-08-21T12:31:23.726Z,34.41
2023-08-21T12:36:25.629Z,33.58
2023-08-21T12:41:27.228Z,33.40
2023-08-21T12:46:29.804Z,34.87
2023-08-21T12:51:31.579Z,34.19
2023-08-21T12:56:33.337Z,33.62
2023-08-21T13:01:35.559Z,33.67
2023-08-21T13:06:37.040Z,33.20
2023-08-21T13:11:38.534Z,33.97
2023-08-21T13:16:40.063Z,34.86
2023-08-21T13:21:41.856Z,35.91
2023-08-21T13:26:43.414Z,35.53
2023-08-21T13:31:44.830Z,34.19
2023-08-21T13:36:46.241Z,35.65
2023-08-21T13:41:49.216Z,34.94
2023-08-21T13:46:50.631Z,34.97
2023-08-21T13:51:52.036Z,35.28
2023-08-21T13:56:53.454Z,36.17
2023-08-21T14:01:54.901Z,36.80
2023-08-21T14:06:56.305Z,37.17
2023-08-21T14:11:57.649Z,37.53
2023-08-21T14:16:59.664Z,38.68
2023-08-21T14:22:01.511Z,38.75
2023-08-21T14:27:03.056Z,38.69
2023-08-21T14:32:04.559Z,39.31
2023-08-21T14:37:06.505Z,38.52
2023-08-21T14:42:08.042Z,38.88
2023-08-21T14:47:09.421Z,38.18
2023-08-21T14:52:10.947Z,38.68
2023-08-21T14:57:12.297Z,39.09
2023-08-21T15:02:13.775Z,39.21
2023-08-21T15:07:15.115Z,39.65
2023-08-21T15:12:16.593Z,39.85
2023-08-21T15:17:20.170Z,40.44
2023-08-21T15:22:22.256Z,40.01
2023-08-21T15:27:23.818Z,40.39
2023-08-21T15:32:25.200Z,40.27
2023-08-21T15:37:26.510Z,40.70
2023-08-21T15:42:28.039Z,40.24
2023-08-21T15:47:46.941Z,40.67
2023-08-21T15:52:49.809Z,40.81
2023-08-21T15:57:51.285Z,41.12
2023-08-21T16:02:52.823Z,40.79
2023-08-21T16:07:55.519Z,40.63
2023-08-21T16:12:57.026Z,40.83
2023-08-21T16:17:58.722Z,41.11
2023-08-21T16:23:00.322Z,41.06
2023-08-21T16:28:01.797Z,41.11
2023-08-21T16:33:04.623Z,41.58
2023-08-21T16:38:06.255Z,41.89
2023-08-21T16:43:07.889Z,41.92
2023-08-21T16:48:10.084Z,42.13
2023-08-21T16:53:22.886Z,42.71
2023-08-21T16:58:25.017Z,42.78
2023-08-21T17:03:26.511Z,43.11
2023-08-21T17:08:27.882Z,42.76
2023-08-21T17:13:29.250Z,42.88
2023-08-21T17:18:30.819Z,43.54
2023-08-21T17:23:32.170Z,43.85
2023-08-21T17:28:33.602Z,44.73
2023-08-21T17:33:38.671Z,44.73
2023-08-21T17:38:40.292Z,44.50
2023-08-21T17:43:41.743Z,45.45
2023-08-21T17:48:44.050Z,45.60
2023-08-21T17:53:45.525Z,45.93
2023-08-21T17:58:47.089Z,46.30
2023-08-21T18:03:48.835Z,46.32
2023-08-21T18:08:50.800Z,46.53
2023-08-21T18:13:52.249Z,46.95
2023-08-21T18:18:53.635Z,47.69
2023-08-21T18:23:55.148Z,48.04
2023-08-21T18:28:56.542Z,48.62
2023-08-21T18:33:57.981Z,48.92
2023-08-21T18:38:59.951Z,49.34
2023-08-21T18:44:01.515Z,49.84
2023-08-21T18:49:02.849Z,50.32
2023-08-21T18:54:04.478Z,50.99
2023-08-21T18:59:05.841Z,51.52
2023-08-21T19:04:07.291Z,52.03
2023-08-21T19:09:08.720Z,52.32
2023-08-21T19:14:10.062Z,52.46
2023-08-21T19:19:11.853Z,52.43
2023-08-21T19:24:13.229Z,52.89
2023-08-21T19:29:14.975Z,52.43
2023-08-21T19:34:16.485Z,52.39
2023-08-21T19:39:18.086Z,53.05
2023-08-21T19:44:19.535Z,53.07
2023-08-21T19:49:21.030Z,53.48
2023-08-21T19:54:22.883Z,53.29
2023-08-21T19:59:24.202Z,53.54
2023-08-21T20:04:25.844Z,53.88
2023-08-21T20:09:27.189Z,53.66
2023-08-21T20:14:28.640Z,54.03
2023-08-21T20:19:30.143Z,54.40
2023-08-21T20:24:31.661Z,54.52
2023-08-21T20:29:33.152Z,55.22
2023-08-21T20:34:34.593Z,55.56
2023-08-21T20:39:36.115Z,55.86
2023-08-21T20:44:37.808Z,55.83
2023-08-21T20:49:40.267Z,56.00
2023-08-21T20:54:42.849Z,55.60
2023-08-21T20:59:44.245Z,55.59
2023-08-21T21:04:46.023Z,56.50
2023-08-21T21:09:47.987Z,56.99
2023-08-21T21:14:49.393Z,56.98
2023-08-21T21:19:50.774Z,57.48
2023-08-21T21:24:52.206Z,57.00
2023-08-21T21:29:53.597Z,57.19
2023-08-21T21:34:55.456Z,57.31
2023-08-21T21:39:56.846Z,57.68
2023-08-21T21:44:58.300Z,57.50
2023-08-21T21:49:59.709Z,57.48
2023-08-21T21:55:01.107Z,57.52
2023-08-21T22:00:02.933Z,57.87
2023-08-21T22:05:05.315Z,57.87
2023-08-21T22:10:08.285Z,57.72
2023-08-21T22:15:10.911Z,57.93
2023-08-21T22:20:13.855Z,59.28
2023-08-21T22:25:16.331Z,57.97
2023-08-21T22:30:18.128Z,58.84
2023-08-21T22:35:19.639Z,58.47
2023-08-21T22:40:25.895Z,58.09
2023-08-21T22:45:27.379Z,57.77
2023-08-21T22:50:28.741Z,59.03
2023-08-21T22:55:32.245Z,59.02
2023-08-21T23:00:33.903Z,58.71
2023-08-21T23:05:35.312Z,59.09
2023-08-21T23:10:36.767Z,59.50
2023-08-21T23:15:44.945Z,59.99
2023-08-21T23:20:56.053Z,60.36
2023-08-21T23:25:59.748Z,60.35
2023-08-21T23:31:01.712Z,60.33
2023-08-21T23:36:03.213Z,60.00
2023-08-21T23:41:04.795Z,60.38
2023-08-21T23:46:06.197Z,60.57
2023-08-21T23:51:10.325Z,60.42
2023-08-21T23:56:12.193Z,60.88
